sensor_id;sensor_type;location;lat;lon;timestamp;P1;durP1;ratioP1;P2;durP2;ratioP2
7479;SDS011;3781;42.272;22.658;2023-10-13T00:02:03;3.27;;;2.03;;
7479;SDS011;3781;42.272;22.658;2023-10-13T00:04:30;4.43;;;1.77;;
7479;SDS011;3781;42.272;22.658;2023-10-13T00:07:00;3.37;;;2.00;;
7479;SDS011;3781;42.272;22.658;2023-10-13T00:09:29;3.73;;;2.03;;
7479;SDS011;3781;42.272;22.658;2023-10-13T00:11:58;3.90;;;1.90;;
7479;SDS011;3781;42.272;22.658;2023-10-13T00:14:26;1.37;;;1.27;;
7479;SDS011;3781;42.272;22.658;2023-10-13T00:16:58;2.03;;;1.87;;
7479;SDS011;3781;42.272;22.658;2023-10-13T00:19:30;7.50;;;2.77;;
7479;SDS011;3781;42.272;22.658;2023-10-13T00:22:04;2.53;;;2.33;;
7479;SDS011;3781;42.272;22.658;2023-10-13T00:24:38;1.70;;;1.60;;
7479;SDS011;3781;42.272;22.658;2023-10-13T00:27:12;5.00;;;1.57;;
7479;SDS011;3781;42.272;22.658;2023-10-13T00:29:56;2.90;;;2.07;;
7479;SDS011;3781;42.272;22.658;2023-10-13T00:32:41;3.60;;;1.17;;
7479;SDS011;3781;42.272;22.658;2023-10-13T00:35:10;2.30;;;2.00;;
7479;SDS011;3781;42.272;22.658;2023-10-13T00:37:40;1.67;;;1.50;;
7479;SDS011;3781;42.272;22.658;2023-10-13T00:40:10;5.03;;;1.43;;
7479;SDS011;3781;42.272;22.658;2023-10-13T00:42:52;1.40;;;1.30;;
7479;SDS011;3781;42.272;22.658;2023-10-13T00:45:21;4.20;;;1.83;;
7479;SDS011;3781;42.272;22.658;2023-10-13T00:47:48;2.67;;;2.00;;
7479;SDS011;3781;42.272;22.658;2023-10-13T00:50:21;2.90;;;2.00;;
7479;SDS011;3781;42.272;22.658;2023-10-13T00:52:49;1.87;;;1.70;;
7479;SDS011;3781;42.272;22.658;2023-10-13T00:55:17;2.03;;;1.77;;
7479;SDS011;3781;42.272;22.658;2023-10-13T00:57:44;5.40;;;2.60;;
7479;SDS011;3781;42.272;22.658;2023-10-13T01:00:12;3.30;;;1.73;;
7479;SDS011;3781;42.272;22.658;2023-10-13T01:02:45;2.83;;;2.50;;
7479;SDS011;3781;42.272;22.658;2023-10-13T01:05:20;2.57;;;2.10;;
7479;SDS011;3781;42.272;22.658;2023-10-13T01:07:47;2.03;;;1.53;;
7479;SDS011;3781;42.272;22.658;2023-10-13T01:10:18;5.97;;;2.50;;
7479;SDS011;3781;42.272;22.658;2023-10-13T01:12:45;5.00;;;1.60;;
7479;SDS011;3781;42.272;22.658;2023-10-13T01:15:12;1.87;;;1.63;;
7479;SDS011;3781;42.272;22.658;2023-10-13T01:17:42;1.07;;;1.07;;
7479;SDS011;3781;42.272;22.658;2023-10-13T01:20:13;1.63;;;1.47;;
7479;SDS011;3781;42.272;22.658;2023-10-13T01:22:46;2.47;;;2.13;;
7479;SDS011;3781;42.272;22.658;2023-10-13T01:25:22;1.60;;;1.43;;
7479;SDS011;3781;42.272;22.658;2023-10-13T01:27:53;1.50;;;1.30;;
7479;SDS011;3781;42.272;22.658;2023-10-13T01:30:21;2.30;;;1.90;;
7479;SDS011;3781;42.272;22.658;2023-10-13T01:32:48;1.90;;;1.50;;
7479;SDS011;3781;42.272;22.658;2023-10-13T01:35:17;2.93;;;2.00;;
7479;SDS011;3781;42.272;22.658;2023-10-13T01:37:44;1.57;;;1.47;;
7479;SDS011;3781;42.272;22.658;2023-10-13T01:40:11;3.13;;;1.77;;
7479;SDS011;3781;42.272;22.658;2023-10-13T01:42:38;2.87;;;1.43;;
7479;SDS011;3781;42.272;22.658;2023-10-13T01:45:06;2.43;;;2.13;;
7479;SDS011;3781;42.272;22.658;2023-10-13T01:47:32;2.47;;;1.97;;
7479;SDS011;3781;42.272;22.658;2023-10-13T01:49:59;2.47;;;1.23;;
7479;SDS011;3781;42.272;22.658;2023-10-13T01:52:32;2.87;;;1.57;;
7479;SDS011;3781;42.272;22.658;2023-10-13T01:54:58;6.03;;;3.43;;
7479;SDS011;3781;42.272;22.658;2023-10-13T01:57:26;1.57;;;1.47;;
7479;SDS011;3781;42.272;22.658;2023-10-13T01:59:54;2.97;;;1.73;;
7479;SDS011;3781;42.272;22.658;2023-10-13T02:02:20;5.17;;;2.30;;
7479;SDS011;3781;42.272;22.658;2023-10-13T02:04:53;1.67;;;1.53;;
7479;SDS011;3781;42.272;22.658;2023-10-13T02:07:22;2.30;;;1.70;;
7479;SDS011;3781;42.272;22.658;2023-10-13T02:09:54;3.83;;;2.00;;
7479;SDS011;3781;42.272;22.658;2023-10-13T02:12:20;1.97;;;1.77;;
7479;SDS011;3781;42.272;22.658;2023-10-13T02:14:52;2.23;;;1.20;;
7479;SDS011;3781;42.272;22.658;2023-10-13T02:17:20;1.80;;;1.70;;
7479;SDS011;3781;42.272;22.658;2023-10-13T02:19:48;2.57;;;2.13;;
7479;SDS011;3781;42.272;22.658;2023-10-13T02:22:19;2.57;;;1.90;;
7479;SDS011;3781;42.272;22.658;2023-10-13T02:24:53;4.10;;;1.70;;
7479;SDS011;3781;42.272;22.658;2023-10-13T02:27:26;2.00;;;1.53;;
7479;SDS011;3781;42.272;22.658;2023-10-13T02:29:55;4.23;;;2.10;;
7479;SDS011;3781;42.272;22.658;2023-10-13T02:32:23;2.73;;;1.70;;
7479;SDS011;3781;42.272;22.658;2023-10-13T02:34:51;2.13;;;1.50;;
7479;SDS011;3781;42.272;22.658;2023-10-13T02:37:17;1.90;;;1.27;;
7479;SDS011;3781;42.272;22.658;2023-10-13T02:39:45;1.63;;;1.37;;
7479;SDS011;3781;42.272;22.658;2023-10-13T02:42:11;1.27;;;1.07;;
7479;SDS011;3781;42.272;22.658;2023-10-13T02:44:48;3.40;;;2.10;;
7479;SDS011;3781;42.272;22.658;2023-10-13T02:47:15;2.83;;;2.57;;
7479;SDS011;3781;42.272;22.658;2023-10-13T02:49:44;2.17;;;1.77;;
7479;SDS011;3781;42.272;22.658;2023-10-13T02:52:12;4.07;;;1.43;;
7479;SDS011;3781;42.272;22.658;2023-10-13T02:54:39;2.83;;;1.80;;
7479;SDS011;3781;42.272;22.658;2023-10-13T02:57:12;4.03;;;2.20;;
7479;SDS011;3781;42.272;22.658;2023-10-13T02:59:41;2.13;;;1.70;;
7479;SDS011;3781;42.272;22.658;2023-10-13T03:02:11;2.30;;;2.20;;
7479;SDS011;3781;42.272;22.658;2023-10-13T03:04:50;1.77;;;1.67;;
7479;SDS011;3781;42.272;22.658;2023-10-13T03:07:16;2.80;;;2.07;;
7479;SDS011;3781;42.272;22.658;2023-10-13T03:09:48;1.87;;;1.60;;
7479;SDS011;3781;42.272;22.658;2023-10-13T03:12:15;5.70;;;2.10;;
7479;SDS011;3781;42.272;22.658;2023-10-13T03:14:43;6.77;;;2.30;;
7479;SDS011;3781;42.272;22.658;2023-10-13T03:17:12;2.33;;;1.77;;
7479;SDS011;3781;42.272;22.658;2023-10-13T03:19:42;6.17;;;1.63;;
7479;SDS011;3781;42.272;22.658;2023-10-13T03:22:12;3.03;;;2.03;;
7479;SDS011;3781;42.272;22.658;2023-10-13T03:24:41;4.77;;;2.33;;
7479;SDS011;3781;42.272;22.658;2023-10-13T03:27:10;4.17;;;2.00;;
7479;SDS011;3781;42.272;22.658;2023-10-13T03:29:41;2.03;;;1.93;;
7479;SDS011;3781;42.272;22.658;2023-10-13T03:32:07;1.13;;;1.00;;
7479;SDS011;3781;42.272;22.658;2023-10-13T03:34:38;2.37;;;2.07;;
7479;SDS011;3781;42.272;22.658;2023-10-13T03:37:21;8.47;;;2.37;;
7479;SDS011;3781;42.272;22.658;2023-10-13T03:40:03;1.67;;;1.57;;
7479;SDS011;3781;42.272;22.658;2023-10-13T03:42:41;0.93;;;0.90;;
7479;SDS011;3781;42.272;22.658;2023-10-13T03:45:08;1.63;;;1.40;;
7479;SDS011;3781;42.272;22.658;2023-10-13T03:47:36;2.20;;;1.20;;
7479;SDS011;3781;42.272;22.658;2023-10-13T03:50:04;4.53;;;3.00;;
7479;SDS011;3781;42.272;22.658;2023-10-13T03:52:43;1.53;;;1.43;;
7479;SDS011;3781;42.272;22.658;2023-10-13T03:55:11;2.27;;;1.77;;
7479;SDS011;3781;42.272;22.658;2023-10-13T03:57:43;4.23;;;1.47;;
7479;SDS011;3781;42.272;22.658;2023-10-13T04:00:11;2.43;;;2.23;;
7479;SDS011;3781;42.272;22.658;2023-10-13T04:02:46;4.37;;;2.40;;
7479;SDS011;3781;42.272;22.658;2023-10-13T04:05:19;3.87;;;1.77;;
7479;SDS011;3781;42.272;22.658;2023-10-13T04:08:03;3.57;;;2.63;;
7479;SDS011;3781;42.272;22.658;2023-10-13T04:10:53;3.47;;;2.03;;
7479;SDS011;3781;42.272;22.658;2023-10-13T04:13:38;1.50;;;1.43;;
7479;SDS011;3781;42.272;22.658;2023-10-13T04:16:22;3.43;;;1.70;;
7479;SDS011;3781;42.272;22.658;2023-10-13T04:19:03;2.93;;;1.97;;
7479;SDS011;3781;42.272;22.658;2023-10-13T04:21:45;3.13;;;1.63;;
7479;SDS011;3781;42.272;22.658;2023-10-13T04:24:25;2.47;;;2.37;;
7479;SDS011;3781;42.272;22.658;2023-10-13T04:27:10;1.40;;;1.17;;
7479;SDS011;3781;42.272;22.658;2023-10-13T04:30:06;3.17;;;1.53;;
7479;SDS011;3781;42.272;22.658;2023-10-13T04:32:43;2.73;;;1.90;;
7479;SDS011;3781;42.272;22.658;2023-10-13T04:35:18;4.93;;;3.07;;
7479;SDS011;3781;42.272;22.658;2023-10-13T04:37:45;4.90;;;2.83;;
7479;SDS011;3781;42.272;22.658;2023-10-13T04:40:17;4.57;;;3.03;;
7479;SDS011;3781;42.272;22.658;2023-10-13T04:42:49;8.43;;;1.90;;
7479;SDS011;3781;42.272;22.658;2023-10-13T04:45:16;3.33;;;2.43;;
7479;SDS011;3781;42.272;22.658;2023-10-13T04:48:09;3.90;;;2.37;;
7479;SDS011;3781;42.272;22.658;2023-10-13T04:50:58;6.23;;;2.83;;
7479;SDS011;3781;42.272;22.658;2023-10-13T04:53:40;3.50;;;2.17;;
7479;SDS011;3781;42.272;22.658;2023-10-13T04:56:32;4.70;;;2.55;;
7479;SDS011;3781;42.272;22.658;2023-10-13T04:59:39;1.33;;;1.03;;
7479;SDS011;3781;42.272;22.658;2023-10-13T05:02:29;3.77;;;1.80;;
7479;SDS011;3781;42.272;22.658;2023-10-13T05:05:13;7.93;;;2.40;;
7479;SDS011;3781;42.272;22.658;2023-10-13T05:08:03;4.23;;;2.30;;
7479;SDS011;3781;42.272;22.658;2023-10-13T05:10:48;5.83;;;2.07;;
7479;SDS011;3781;42.272;22.658;2023-10-13T05:13:33;4.57;;;2.60;;
7479;SDS011;3781;42.272;22.658;2023-10-13T05:16:17;3.90;;;2.07;;
7479;SDS011;3781;42.272;22.658;2023-10-13T05:19:01;3.27;;;1.90;;
7479;SDS011;3781;42.272;22.658;2023-10-13T05:21:45;3.37;;;1.93;;
7479;SDS011;3781;42.272;22.658;2023-10-13T05:24:29;6.47;;;2.60;;
7479;SDS011;3781;42.272;22.658;2023-10-13T05:27:13;3.50;;;1.97;;
7479;SDS011;3781;42.272;22.658;2023-10-13T05:29:58;3.90;;;2.43;;
7479;SDS011;3781;42.272;22.658;2023-10-13T05:32:43;3.40;;;2.87;;
7479;SDS011;3781;42.272;22.658;2023-10-13T05:35:27;3.43;;;2.47;;
7479;SDS011;3781;42.272;22.658;2023-10-13T05:38:10;10.17;;;4.40;;
7479;SDS011;3781;42.272;22.658;2023-10-13T05:40:56;5.23;;;3.20;;
7479;SDS011;3781;42.272;22.658;2023-10-13T05:43:40;4.50;;;2.83;;
7479;SDS011;3781;42.272;22.658;2023-10-13T05:46:26;3.47;;;2.90;;
7479;SDS011;3781;42.272;22.658;2023-10-13T05:49:26;5.17;;;3.37;;
7479;SDS011;3781;42.272;22.658;2023-10-13T05:52:14;3.30;;;2.10;;
7479;SDS011;3781;42.272;22.658;2023-10-13T05:55:05;4.73;;;2.77;;
7479;SDS011;3781;42.272;22.658;2023-10-13T05:57:49;8.90;;;4.33;;
7479;SDS011;3781;42.272;22.658;2023-10-13T06:00:37;9.10;;;3.70;;
7479;SDS011;3781;42.272;22.658;2023-10-13T06:03:24;3.67;;;3.10;;
7479;SDS011;3781;42.272;22.658;2023-10-13T06:06:08;10.60;;;3.77;;
7479;SDS011;3781;42.272;22.658;2023-10-13T06:08:54;7.23;;;4.00;;
7479;SDS011;3781;42.272;22.658;2023-10-13T06:11:38;8.70;;;3.60;;
7479;SDS011;3781;42.272;22.658;2023-10-13T06:14:22;9.83;;;4.03;;
7479;SDS011;3781;42.272;22.658;2023-10-13T06:17:06;5.67;;;3.83;;
7479;SDS011;3781;42.272;22.658;2023-10-13T06:19:52;3.23;;;2.27;;
7479;SDS011;3781;42.272;22.658;2023-10-13T06:22:36;10.83;;;3.30;;
7479;SDS011;3781;42.272;22.658;2023-10-13T06:25:20;4.53;;;3.53;;
7479;SDS011;3781;42.272;22.658;2023-10-13T06:28:04;6.80;;;3.07;;
7479;SDS011;3781;42.272;22.658;2023-10-13T06:30:55;3.20;;;2.53;;
7479;SDS011;3781;42.272;22.658;2023-10-13T06:33:27;4.53;;;3.40;;
7479;SDS011;3781;42.272;22.658;2023-10-13T06:35:57;8.30;;;2.87;;
7479;SDS011;3781;42.272;22.658;2023-10-13T06:38:24;6.07;;;3.73;;
7479;SDS011;3781;42.272;22.658;2023-10-13T06:40:56;4.13;;;2.93;;
7479;SDS011;3781;42.272;22.658;2023-10-13T06:43:23;3.90;;;3.60;;
7479;SDS011;3781;42.272;22.658;2023-10-13T06:45:50;4.13;;;3.73;;
7479;SDS011;3781;42.272;22.658;2023-10-13T06:48:25;8.63;;;4.23;;
7479;SDS011;3781;42.272;22.658;2023-10-13T06:50:52;6.57;;;4.33;;
7479;SDS011;3781;42.272;22.658;2023-10-13T06:53:24;5.63;;;3.37;;
7479;SDS011;3781;42.272;22.658;2023-10-13T06:55:52;4.83;;;3.50;;
7479;SDS011;3781;42.272;22.658;2023-10-13T06:58:23;6.67;;;4.13;;
7479;SDS011;3781;42.272;22.658;2023-10-13T07:00:54;8.53;;;4.57;;
7479;SDS011;3781;42.272;22.658;2023-10-13T07:03:24;6.80;;;3.83;;
7479;SDS011;3781;42.272;22.658;2023-10-13T07:05:51;4.17;;;3.63;;
7479;SDS011;3781;42.272;22.658;2023-10-13T07:08:19;5.67;;;4.07;;
7479;SDS011;3781;42.272;22.658;2023-10-13T07:10:50;6.87;;;4.87;;
7479;SDS011;3781;42.272;22.658;2023-10-13T07:13:27;7.27;;;5.13;;
7479;SDS011;3781;42.272;22.658;2023-10-13T07:15:54;7.07;;;4.93;;
7479;SDS011;3781;42.272;22.658;2023-10-13T07:18:26;4.73;;;4.17;;
7479;SDS011;3781;42.272;22.658;2023-10-13T07:21:01;7.80;;;4.53;;
7479;SDS011;3781;42.272;22.658;2023-10-13T07:23:34;7.37;;;4.63;;
7479;SDS011;3781;42.272;22.658;2023-10-13T07:26:04;8.50;;;4.40;;
7479;SDS011;3781;42.272;22.658;2023-10-13T07:28:33;6.37;;;5.00;;
7479;SDS011;3781;42.272;22.658;2023-10-13T07:31:08;8.53;;;4.47;;
7479;SDS011;3781;42.272;22.658;2023-10-13T07:33:41;6.77;;;3.47;;
7479;SDS011;3781;42.272;22.658;2023-10-13T07:36:08;5.97;;;4.77;;
7479;SDS011;3781;42.272;22.658;2023-10-13T07:38:43;5.73;;;4.10;;
7479;SDS011;3781;42.272;22.658;2023-10-13T07:41:15;4.73;;;3.53;;
7479;SDS011;3781;42.272;22.658;2023-10-13T07:43:42;4.10;;;3.70;;
7479;SDS011;3781;42.272;22.658;2023-10-13T07:46:13;7.43;;;3.87;;
7479;SDS011;3781;42.272;22.658;2023-10-13T07:48:40;7.37;;;3.63;;
7479;SDS011;3781;42.272;22.658;2023-10-13T07:51:10;6.53;;;3.83;;
7479;SDS011;3781;42.272;22.658;2023-10-13T07:53:41;3.80;;;3.40;;
7479;SDS011;3781;42.272;22.658;2023-10-13T07:56:08;8.93;;;3.20;;
7479;SDS011;3781;42.272;22.658;2023-10-13T07:58:40;4.63;;;3.13;;
7479;SDS011;3781;42.272;22.658;2023-10-13T08:01:17;3.90;;;2.50;;
7479;SDS011;3781;42.272;22.658;2023-10-13T08:03:44;2.93;;;2.63;;
7479;SDS011;3781;42.272;22.658;2023-10-13T08:06:12;3.63;;;2.50;;
7479;SDS011;3781;42.272;22.658;2023-10-13T08:08:47;4.73;;;3.00;;
7479;SDS011;3781;42.272;22.658;2023-10-13T08:11:20;4.47;;;3.13;;
7479;SDS011;3781;42.272;22.658;2023-10-13T08:14:01;3.60;;;3.10;;
7479;SDS011;3781;42.272;22.658;2023-10-13T08:16:36;7.57;;;3.50;;
7479;SDS011;3781;42.272;22.658;2023-10-13T08:19:18;3.80;;;3.03;;
7479;SDS011;3781;42.272;22.658;2023-10-13T08:21:52;3.60;;;2.73;;
7479;SDS011;3781;42.272;22.658;2023-10-13T08:24:22;4.07;;;3.53;;
7479;SDS011;3781;42.272;22.658;2023-10-13T08:26:54;5.97;;;3.40;;
7479;SDS011;3781;42.272;22.658;2023-10-13T08:29:42;3.30;;;3.00;;
7479;SDS011;3781;42.272;22.658;2023-10-13T08:32:31;3.93;;;3.00;;
7479;SDS011;3781;42.272;22.658;2023-10-13T08:35:19;3.40;;;2.83;;
7479;SDS011;3781;42.272;22.658;2023-10-13T08:37:59;5.23;;;3.57;;
7479;SDS011;3781;42.272;22.658;2023-10-13T08:40:29;5.40;;;3.27;;
7479;SDS011;3781;42.272;22.658;2023-10-13T08:43:28;4.17;;;3.10;;
7479;SDS011;3781;42.272;22.658;2023-10-13T08:46:10;4.20;;;2.93;;
7479;SDS011;3781;42.272;22.658;2023-10-13T08:48:52;4.87;;;3.30;;
7479;SDS011;3781;42.272;22.658;2023-10-13T08:51:33;3.20;;;2.93;;
7479;SDS011;3781;42.272;22.658;2023-10-13T08:54:14;4.10;;;3.17;;
7479;SDS011;3781;42.272;22.658;2023-10-13T08:57:00;3.80;;;3.50;;
7479;SDS011;3781;42.272;22.658;2023-10-13T08:59:44;4.87;;;3.10;;
7479;SDS011;3781;42.272;22.658;2023-10-13T09:02:19;5.23;;;2.93;;
7479;SDS011;3781;42.272;22.658;2023-10-13T09:05:07;5.20;;;3.03;;
7479;SDS011;3781;42.272;22.658;2023-10-13T09:07:55;5.80;;;3.60;;
7479;SDS011;3781;42.272;22.658;2023-10-13T09:10:34;7.87;;;2.90;;
7479;SDS011;3781;42.272;22.658;2023-10-13T09:13:09;2.87;;;2.67;;
7479;SDS011;3781;42.272;22.658;2023-10-13T09:15:44;7.07;;;3.20;;
7479;SDS011;3781;42.272;22.658;2023-10-13T09:18:27;5.07;;;3.77;;
7479;SDS011;3781;42.272;22.658;2023-10-13T09:21:11;3.87;;;3.20;;
7479;SDS011;3781;42.272;22.658;2023-10-13T09:24:19;4.50;;;3.07;;
7479;SDS011;3781;42.272;22.658;2023-10-13T09:26:52;3.60;;;3.13;;
7479;SDS011;3781;42.272;22.658;2023-10-13T09:29:21;7.05;;;3.35;;
7479;SDS011;3781;42.272;22.658;2023-10-13T09:31:48;4.47;;;3.40;;
7479;SDS011;3781;42.272;22.658;2023-10-13T09:34:28;7.10;;;2.90;;
7479;SDS011;3781;42.272;22.658;2023-10-13T09:36:59;3.70;;;3.40;;
7479;SDS011;3781;42.272;22.658;2023-10-13T09:39:28;6.30;;;3.17;;
7479;SDS011;3781;42.272;22.658;2023-10-13T09:42:00;3.80;;;3.40;;
7479;SDS011;3781;42.272;22.658;2023-10-13T09:44:28;6.72;;;3.33;;
7479;SDS011;3781;42.272;22.658;2023-10-13T09:46:57;5.00;;;3.42;;
7479;SDS011;3781;42.272;22.658;2023-10-13T09:49:35;7.40;;;3.47;;
7479;SDS011;3781;42.272;22.658;2023-10-13T09:52:17;5.47;;;2.80;;
7479;SDS011;3781;42.272;22.658;2023-10-13T09:54:55;3.28;;;2.65;;
7479;SDS011;3781;42.272;22.658;2023-10-13T09:57:29;3.28;;;2.97;;
7479;SDS011;3781;42.272;22.658;2023-10-13T10:00:09;3.90;;;2.83;;
7479;SDS011;3781;42.272;22.658;2023-10-13T10:02:53;3.25;;;2.97;;
7479;SDS011;3781;42.272;22.658;2023-10-13T10:05:25;4.95;;;2.33;;
7479;SDS011;3781;42.272;22.658;2023-10-13T10:07:55;3.55;;;3.00;;
7479;SDS011;3781;42.272;22.658;2023-10-13T10:10:21;2.50;;;2.30;;
7479;SDS011;3781;42.272;22.658;2023-10-13T10:12:52;3.13;;;2.80;;
7479;SDS011;3781;42.272;22.658;2023-10-13T10:15:26;2.80;;;2.60;;
7479;SDS011;3781;42.272;22.658;2023-10-13T10:17:59;2.90;;;2.35;;
7479;SDS011;3781;42.272;22.658;2023-10-13T10:20:31;3.80;;;3.13;;
7479;SDS011;3781;42.272;22.658;2023-10-13T10:23:05;2.90;;;2.63;;
7479;SDS011;3781;42.272;22.658;2023-10-13T10:25:35;3.15;;;2.80;;
7479;SDS011;3781;42.272;22.658;2023-10-13T10:28:03;3.03;;;2.40;;
7479;SDS011;3781;42.272;22.658;2023-10-13T10:30:32;4.70;;;2.60;;
7479;SDS011;3781;42.272;22.658;2023-10-13T10:33:04;2.50;;;2.28;;
7479;SDS011;3781;42.272;22.658;2023-10-13T10:35:38;2.40;;;2.20;;
7479;SDS011;3781;42.272;22.658;2023-10-13T10:38:08;2.67;;;2.30;;
7479;SDS011;3781;42.272;22.658;2023-10-13T10:40:49;3.22;;;2.17;;
7479;SDS011;3781;42.272;22.658;2023-10-13T10:43:24;5.28;;;2.60;;
7479;SDS011;3781;42.272;22.658;2023-10-13T10:45:54;2.58;;;2.38;;
7479;SDS011;3781;42.272;22.658;2023-10-13T10:48:25;2.78;;;2.20;;
7479;SDS011;3781;42.272;22.658;2023-10-13T10:51:01;2.28;;;2.08;;
7479;SDS011;3781;42.272;22.658;2023-10-13T10:53:39;1.48;;;1.38;;
7479;SDS011;3781;42.272;22.658;2023-10-13T10:56:09;2.65;;;2.25;;
7479;SDS011;3781;42.272;22.658;2023-10-13T10:58:46;4.60;;;2.10;;
7479;SDS011;3781;42.272;22.658;2023-10-13T11:01:13;2.25;;;1.92;;
7479;SDS011;3781;42.272;22.658;2023-10-13T11:03:53;3.75;;;2.10;;
7479;SDS011;3781;42.272;22.658;2023-10-13T11:06:23;5.15;;;1.92;;
7479;SDS011;3781;42.272;22.658;2023-10-13T11:09:01;2.67;;;1.20;;
7479;SDS011;3781;42.272;22.658;2023-10-13T11:11:43;4.93;;;1.10;;
7479;SDS011;3781;42.272;22.658;2023-10-13T11:14:19;1.45;;;1.35;;
7479;SDS011;3781;42.272;22.658;2023-10-13T11:16:49;1.23;;;0.88;;
7479;SDS011;3781;42.272;22.658;2023-10-13T11:19:19;1.30;;;1.10;;
7479;SDS011;3781;42.272;22.658;2023-10-13T11:21:54;1.92;;;1.10;;
7479;SDS011;3781;42.272;22.658;2023-10-13T11:24:22;1.10;;;1.02;;
7479;SDS011;3781;42.272;22.658;2023-10-13T11:26:49;2.65;;;1.40;;
7479;SDS011;3781;42.272;22.658;2023-10-13T11:29:17;0.95;;;0.77;;
7479;SDS011;3781;42.272;22.658;2023-10-13T11:31:48;0.88;;;0.88;;
7479;SDS011;3781;42.272;22.658;2023-10-13T11:34:23;1.27;;;1.15;;
7479;SDS011;3781;42.272;22.658;2023-10-13T11:36:50;2.22;;;0.90;;
7479;SDS011;3781;42.272;22.658;2023-10-13T11:39:18;1.48;;;1.08;;
7479;SDS011;3781;42.272;22.658;2023-10-13T11:41:49;0.98;;;0.75;;
7479;SDS011;3781;42.272;22.658;2023-10-13T11:44:20;2.83;;;1.02;;
7479;SDS011;3781;42.272;22.658;2023-10-13T11:46:49;1.40;;;0.85;;
7479;SDS011;3781;42.272;22.658;2023-10-13T11:49:32;0.93;;;0.90;;
7479;SDS011;3781;42.272;22.658;2023-10-13T11:52:02;1.67;;;1.15;;
7479;SDS011;3781;42.272;22.658;2023-10-13T11:54:46;1.50;;;0.98;;
7479;SDS011;3781;42.272;22.658;2023-10-13T11:57:13;2.35;;;1.15;;
7479;SDS011;3781;42.272;22.658;2023-10-13T11:59:43;3.90;;;1.10;;
7479;SDS011;3781;42.272;22.658;2023-10-13T12:02:21;4.00;;;1.17;;
7479;SDS011;3781;42.272;22.658;2023-10-13T12:05:05;2.70;;;1.80;;
7479;SDS011;3781;42.272;22.658;2023-10-13T12:07:42;3.03;;;1.58;;
7479;SDS011;3781;42.272;22.658;2023-10-13T12:10:15;0.93;;;0.93;;
7479;SDS011;3781;42.272;22.658;2023-10-13T12:12:45;0.85;;;0.85;;
7479;SDS011;3781;42.272;22.658;2023-10-13T12:15:18;2.75;;;1.20;;
7479;SDS011;3781;42.272;22.658;2023-10-13T12:17:59;1.50;;;1.30;;
7479;SDS011;3781;42.272;22.658;2023-10-13T12:20:28;2.67;;;1.08;;
7479;SDS011;3781;42.272;22.658;2023-10-13T12:23:01;5.32;;;1.10;;
7479;SDS011;3781;42.272;22.658;2023-10-13T12:25:42;2.50;;;1.60;;
7479;SDS011;3781;42.272;22.658;2023-10-13T12:28:22;1.95;;;1.05;;
7479;SDS011;3781;42.272;22.658;2023-10-13T12:30:51;1.55;;;1.27;;
7479;SDS011;3781;42.272;22.658;2023-10-13T12:33:20;3.22;;;1.58;;
7479;SDS011;3781;42.272;22.658;2023-10-13T12:36:02;1.00;;;1.00;;
7479;SDS011;3781;42.272;22.658;2023-10-13T12:38:32;2.78;;;1.73;;
7479;SDS011;3781;42.272;22.658;2023-10-13T12:41:39;2.25;;;0.90;;
7479;SDS011;3781;42.272;22.658;2023-10-13T12:44:22;2.13;;;1.40;;
7479;SDS011;3781;42.272;22.658;2023-10-13T12:47:08;1.20;;;1.10;;
7479;SDS011;3781;42.272;22.658;2023-10-13T12:49:52;1.30;;;1.20;;
7479;SDS011;3781;42.272;22.658;2023-10-13T12:52:24;2.95;;;1.30;;
7479;SDS011;3781;42.272;22.658;2023-10-13T12:54:51;2.00;;;1.42;;
7479;SDS011;3781;42.272;22.658;2023-10-13T12:57:32;2.58;;;1.67;;
7479;SDS011;3781;42.272;22.658;2023-10-13T12:59:59;1.75;;;1.65;;
7479;SDS011;3781;42.272;22.658;2023-10-13T13:02:41;1.88;;;1.23;;
7479;SDS011;3781;42.272;22.658;2023-10-13T13:05:08;5.70;;;1.50;;
7479;SDS011;3781;42.272;22.658;2023-10-13T13:07:37;1.20;;;1.10;;
7479;SDS011;3781;42.272;22.658;2023-10-13T13:10:12;2.33;;;1.63;;
7479;SDS011;3781;42.272;22.658;2023-10-13T13:12:40;1.48;;;1.33;;
7479;SDS011;3781;42.272;22.658;2023-10-13T13:15:07;2.13;;;1.58;;
7479;SDS011;3781;42.272;22.658;2023-10-13T13:17:35;1.80;;;1.13;;
7479;SDS011;3781;42.272;22.658;2023-10-13T13:20:04;3.75;;;1.42;;
7479;SDS011;3781;42.272;22.658;2023-10-13T13:22:36;2.22;;;1.50;;
7479;SDS011;3781;42.272;22.658;2023-10-13T13:25:04;2.05;;;1.17;;
7479;SDS011;3781;42.272;22.658;2023-10-13T13:27:33;2.58;;;1.70;;
7479;SDS011;3781;42.272;22.658;2023-10-13T13:30:03;2.65;;;1.48;;
7479;SDS011;3781;42.272;22.658;2023-10-13T13:32:37;2.28;;;1.73;;
7479;SDS011;3781;42.272;22.658;2023-10-13T13:35:06;6.75;;;1.48;;
7479;SDS011;3781;42.272;22.658;2023-10-13T13:37:34;3.78;;;1.30;;
7479;SDS011;3781;42.272;22.658;2023-10-13T13:40:03;1.42;;;1.25;;
7479;SDS011;3781;42.272;22.658;2023-10-13T13:42:39;1.75;;;1.40;;
7479;SDS011;3781;42.272;22.658;2023-10-13T13:45:12;1.30;;;1.20;;
7479;SDS011;3781;42.272;22.658;2023-10-13T13:47:46;1.20;;;1.02;;
7479;SDS011;3781;42.272;22.658;2023-10-13T13:50:18;1.70;;;1.60;;
7479;SDS011;3781;42.272;22.658;2023-10-13T13:52:49;1.77;;;1.67;;
7479;SDS011;3781;42.272;22.658;2023-10-13T13:55:18;2.05;;;1.73;;
7479;SDS011;3781;42.272;22.658;2023-10-13T13:57:45;1.98;;;1.65;;
7479;SDS011;3781;42.272;22.658;2023-10-13T14:00:14;7.05;;;2.83;;
7479;SDS011;3781;42.272;22.658;2023-10-13T14:02:43;1.85;;;1.75;;
7479;SDS011;3781;42.272;22.658;2023-10-13T14:05:12;2.60;;;1.60;;
7479;SDS011;3781;42.272;22.658;2023-10-13T14:07:41;1.80;;;1.70;;
7479;SDS011;3781;42.272;22.658;2023-10-13T14:10:13;4.00;;;1.45;;
7479;SDS011;3781;42.272;22.658;2023-10-13T14:12:56;3.88;;;2.00;;
7479;SDS011;3781;42.272;22.658;2023-10-13T14:15:33;2.28;;;1.40;;
7479;SDS011;3781;42.272;22.658;2023-10-13T14:18:06;2.15;;;1.65;;
7479;SDS011;3781;42.272;22.658;2023-10-13T14:20:37;2.65;;;2.45;;
7479;SDS011;3781;42.272;22.658;2023-10-13T14:23:05;1.08;;;1.02;;
7479;SDS011;3781;42.272;22.658;2023-10-13T14:25:34;3.58;;;1.70;;
7479;SDS011;3781;42.272;22.658;2023-10-13T14:28:03;2.88;;;1.77;;
7479;SDS011;3781;42.272;22.658;2023-10-13T14:30:30;7.80;;;2.10;;
7479;SDS011;3781;42.272;22.658;2023-10-13T14:32:58;1.40;;;1.30;;
7479;SDS011;3781;42.272;22.658;2023-10-13T14:35:26;2.03;;;1.75;;
7479;SDS011;3781;42.272;22.658;2023-10-13T14:37:52;2.85;;;1.80;;
7479;SDS011;3781;42.272;22.658;2023-10-13T14:40:19;1.77;;;1.67;;
7479;SDS011;3781;42.272;22.658;2023-10-13T14:42:47;2.17;;;1.88;;
7479;SDS011;3781;42.272;22.658;2023-10-13T14:45:13;11.45;;;2.28;;
7479;SDS011;3781;42.272;22.658;2023-10-13T14:47:42;1.75;;;1.33;;
7479;SDS011;3781;42.272;22.658;2023-10-13T14:50:10;3.92;;;1.40;;
7479;SDS011;3781;42.272;22.658;2023-10-13T14:52:44;1.50;;;1.40;;
7479;SDS011;3781;42.272;22.658;2023-10-13T14:55:11;1.73;;;1.30;;
7479;SDS011;3781;42.272;22.658;2023-10-13T14:57:45;4.53;;;1.83;;
7479;SDS011;3781;42.272;22.658;2023-10-13T15:00:12;1.80;;;1.70;;
7479;SDS011;3781;42.272;22.658;2023-10-13T15:02:40;2.08;;;1.25;;
7479;SDS011;3781;42.272;22.658;2023-10-13T15:05:09;1.63;;;1.48;;
7479;SDS011;3781;42.272;22.658;2023-10-13T15:07:41;1.42;;;1.33;;
7479;SDS011;3781;42.272;22.658;2023-10-13T15:10:11;3.08;;;1.60;;
7479;SDS011;3781;42.272;22.658;2023-10-13T15:12:40;3.67;;;1.48;;
7479;SDS011;3781;42.272;22.658;2023-10-13T15:15:08;1.43;;;1.27;;
7479;SDS011;3781;42.272;22.658;2023-10-13T15:17:38;2.00;;;1.80;;
7479;SDS011;3781;42.272;22.658;2023-10-13T15:20:06;3.17;;;1.23;;
7479;SDS011;3781;42.272;22.658;2023-10-13T15:22:36;6.47;;;1.70;;
7479;SDS011;3781;42.272;22.658;2023-10-13T15:25:04;3.77;;;2.20;;
7479;SDS011;3781;42.272;22.658;2023-10-13T15:27:42;1.10;;;1.00;;
7479;SDS011;3781;42.272;22.658;2023-10-13T15:30:15;2.53;;;1.27;;
7479;SDS011;3781;42.272;22.658;2023-10-13T15:32:51;1.03;;;0.90;;
7479;SDS011;3781;42.272;22.658;2023-10-13T15:35:22;1.67;;;1.00;;
7479;SDS011;3781;42.272;22.658;2023-10-13T15:37:54;4.13;;;1.90;;
7479;SDS011;3781;42.272;22.658;2023-10-13T15:40:21;4.43;;;1.80;;
7479;SDS011;3781;42.272;22.658;2023-10-13T15:42:49;1.07;;;0.97;;